Aérodrome :
LOGIN :

S'inscrire | Disclaimer

   EN    FR    IT 

 










Légende :    VFR   VFR Marginal   IFR   IFR Intensif   IFR Très Intensif
Visi : 
Plafond : 
>= 8 km
>= 3000ft
5 à 8 km
1000 à 3000 ft
1500m à 5 km
500 à 1000 ft
800 à 1500m
200 à 500 ft
< 800m
< 200 ft
Symboles :   Orages  Brouillard  Fortes neiges  Fortes précipitations  Vent > 20 kt
SIGMETs :   Divers  Orages  Givrage  Turbulence  Onde Orograph.  Cendres Volcan.







- Altitude de l'aérodrome : 129 ft
- Code IATA : ZCN


ETHC - Celle

DERNIER METAR :
  • 240420Z 12003KT 9999 VCTS SCT050CB BKN180 14/09 Q1012 BLU BLU TEMPO GRN

METARs EXPIRÉS :
  • 240320Z 09005KT 9999 FEW120 BKN210 13/09 Q1012 BLU+
  • 240220Z 08004KT 9999 FEW120 BKN220 13/09 Q1013 BLU+

TAF TAF ETHC
Valide du 24 à 05h jusqu'au 24 à 14h UTC


240419Z 2405/2414 23008KT 8000 NSW SCT010 BKN050
TEMPO 2405/2410 25010G20KT 5000 SHRA BKN010 BKN040CB
PROB30 2405/2407 26018G28KT 3000 TSRA BKN006 BKN012CB
BECMG 2409/2411 27012G22KT 9999 NSW SCT020 SCT150
Pas de NOTAMs connus pour ce terrain.
4 SIGMETs publiés pour la FIR Bremen (EDWW) :
 
Orages noyés dans la masse
EDWW SIGMET 6 VALID 240430/240730 EDZH
EDWW BREMEN FIR EMBD TS OBS WI N5400 E00814 - N5219 E01032 - N5210 E00922 - N5356 E00731 - N5400 E00814 TOP FL320 MOV E NC=
Orages noyés dans la masse
EDWW SIGMET 5 VALID 240312/240430 EDZH
EDWW BREMEN FIR EMBD TS FCST W OF LINE N5120 E01010 - N5505 E01010 TOP FL320 MOV E NC=
Annulation du SIGMET 3 
EDWW SIGMET 4 VALID 240310/240430 EDZH
EDWW BREMEN FIR CNL SIGMET 3 240300/240430=
SIGMET 3  ANNULÉ :
Orages noyés dans la masse
EDWW SIGMET 3 VALID 240300/240430 EDZH
EDWW BREMEN FIR EMBD TS FCST W OF LINE N5120 E01010 - N5505 E01010 ABV FL320 MOV E NC=



MET'MAP, la Météo Aéronautique d'un coup d'oeil ! - Copyright ORBIFLY Décembre 2007 - Disclaimer

ORBIFLY MET'MAP TEAM :

Programmation & Développement : Alexandra Zaïnal
Conception & Développement : Baudouin d'Aumeries
Co-Programmation & Développement : Marc-Olivier Méhu
Soutien technique & logistique : Manuel Goepfert

Contact : metmap@orbifly.com




SOURCES & CREDITS :

   NOAA